sensor_id;sensor_type;location;lat;lon;timestamp;temperature;humidity
29201;DHT22;16244;51.956;12.980;2023-11-21T00:00:40;7.70;99.90
29201;DHT22;16244;51.956;12.980;2023-11-21T00:03:08;7.80;99.90
29201;DHT22;16244;51.956;12.980;2023-11-21T00:05:37;7.80;99.90
29201;DHT22;16244;51.956;12.980;2023-11-21T00:08:07;7.70;99.90
29201;DHT22;16244;51.956;12.980;2023-11-21T00:10:35;7.70;99.90
29201;DHT22;16244;51.956;12.980;2023-11-21T00:13:04;7.80;99.90
29201;DHT22;16244;51.956;12.980;2023-11-21T00:15:33;7.70;99.90
29201;DHT22;16244;51.956;12.980;2023-11-21T00:18:00;7.70;99.90
29201;DHT22;16244;51.956;12.980;2023-11-21T00:20:28;7.80;99.90
29201;DHT22;16244;51.956;12.980;2023-11-21T00:22:55;7.80;99.90
29201;DHT22;16244;51.956;12.980;2023-11-21T00:25:23;7.80;99.90
29201;DHT22;16244;51.956;12.980;2023-11-21T00:27:51;7.80;99.90
29201;DHT22;16244;51.956;12.980;2023-11-21T00:30:20;7.80;99.90
29201;DHT22;16244;51.956;12.980;2023-11-21T00:32:49;7.80;99.90
29201;DHT22;16244;51.956;12.980;2023-11-21T00:35:17;7.80;99.90
29201;DHT22;16244;51.956;12.980;2023-11-21T00:37:44;7.80;99.90
29201;DHT22;16244;51.956;12.980;2023-11-21T00:40:12;7.80;99.90
29201;DHT22;16244;51.956;12.980;2023-11-21T00:42:41;7.80;99.90
29201;DHT22;16244;51.956;12.980;2023-11-21T00:45:10;7.80;99.90
29201;DHT22;16244;51.956;12.980;2023-11-21T00:47:37;7.80;99.90
29201;DHT22;16244;51.956;12.980;2023-11-21T00:50:07;7.80;99.90
29201;DHT22;16244;51.956;12.980;2023-11-21T00:52:35;7.80;99.90
29201;DHT22;16244;51.956;12.980;2023-11-21T00:55:04;7.80;99.90
29201;DHT22;16244;51.956;12.980;2023-11-21T00:57:31;7.80;99.90
29201;DHT22;16244;51.956;12.980;2023-11-21T00:59:59;7.80;99.90
29201;DHT22;16244;51.956;12.980;2023-11-21T01:02:26;7.80;99.90
29201;DHT22;16244;51.956;12.980;2023-11-21T01:04:53;7.80;99.90
29201;DHT22;16244;51.956;12.980;2023-11-21T01:07:23;7.80;99.90
29201;DHT22;16244;51.956;12.980;2023-11-21T01:09:50;7.80;99.90
29201;DHT22;16244;51.956;12.980;2023-11-21T01:12:18;7.70;99.90
29201;DHT22;16244;51.956;12.980;2023-11-21T01:14:45;7.70;99.90
29201;DHT22;16244;51.956;12.980;2023-11-21T01:17:12;7.70;99.90
29201;DHT22;16244;51.956;12.980;2023-11-21T01:19:40;7.70;99.90
29201;DHT22;16244;51.956;12.980;2023-11-21T01:22:07;7.70;99.90
29201;DHT22;16244;51.956;12.980;2023-11-21T01:24:36;7.70;99.90
29201;DHT22;16244;51.956;12.980;2023-11-21T01:27:04;7.70;99.90
29201;DHT22;16244;51.956;12.980;2023-11-21T01:29:33;7.70;99.90
29201;DHT22;16244;51.956;12.980;2023-11-21T01:32:01;7.70;99.90
29201;DHT22;16244;51.956;12.980;2023-11-21T01:34:29;7.80;99.90
29201;DHT22;16244;51.956;12.980;2023-11-21T01:36:57;7.70;99.90
29201;DHT22;16244;51.956;12.980;2023-11-21T01:39:30;7.70;99.90
29201;DHT22;16244;51.956;12.980;2023-11-21T01:42:04;7.80;99.90
29201;DHT22;16244;51.956;12.980;2023-11-21T01:44:32;7.80;99.90
29201;DHT22;16244;51.956;12.980;2023-11-21T01:46:59;7.70;99.90
29201;DHT22;16244;51.956;12.980;2023-11-21T01:49:31;7.80;99.90
29201;DHT22;16244;51.956;12.980;2023-11-21T01:51:59;7.80;99.90
29201;DHT22;16244;51.956;12.980;2023-11-21T01:54:27;7.70;99.90
29201;DHT22;16244;51.956;12.980;2023-11-21T01:56:58;7.70;99.90
29201;DHT22;16244;51.956;12.980;2023-11-21T01:59:34;7.80;99.90
29201;DHT22;16244;51.956;12.980;2023-11-21T02:02:03;7.80;99.90
29201;DHT22;16244;51.956;12.980;2023-11-21T02:04:31;7.80;99.90
29201;DHT22;16244;51.956;12.980;2023-11-21T02:06:59;7.80;99.90
29201;DHT22;16244;51.956;12.980;2023-11-21T02:09:27;7.80;99.90
29201;DHT22;16244;51.956;12.980;2023-11-21T02:11:56;7.80;99.90
29201;DHT22;16244;51.956;12.980;2023-11-21T02:14:25;7.80;99.90
29201;DHT22;16244;51.956;12.980;2023-11-21T02:16:55;7.80;99.90
29201;DHT22;16244;51.956;12.980;2023-11-21T02:19:23;7.80;99.90
29201;DHT22;16244;51.956;12.980;2023-11-21T02:21:52;7.80;99.90
29201;DHT22;16244;51.956;12.980;2023-11-21T02:24:22;7.80;99.90
29201;DHT22;16244;51.956;12.980;2023-11-21T02:26:50;7.80;99.90
29201;DHT22;16244;51.956;12.980;2023-11-21T02:29:18;7.80;99.90
29201;DHT22;16244;51.956;12.980;2023-11-21T02:31:51;7.80;99.90
29201;DHT22;16244;51.956;12.980;2023-11-21T02:34:22;7.80;99.90
29201;DHT22;16244;51.956;12.980;2023-11-21T02:36:49;7.90;99.90
29201;DHT22;16244;51.956;12.980;2023-11-21T02:39:17;7.80;99.90
29201;DHT22;16244;51.956;12.980;2023-11-21T02:41:49;7.80;99.90
29201;DHT22;16244;51.956;12.980;2023-11-21T02:44:17;7.80;99.90
29201;DHT22;16244;51.956;12.980;2023-11-21T02:46:44;7.80;99.90
29201;DHT22;16244;51.956;12.980;2023-11-21T02:49:13;7.80;99.90
29201;DHT22;16244;51.956;12.980;2023-11-21T02:51:40;7.90;99.90
29201;DHT22;16244;51.956;12.980;2023-11-21T02:54:08;7.90;99.90
29201;DHT22;16244;51.956;12.980;2023-11-21T02:56:35;7.90;99.90
29201;DHT22;16244;51.956;12.980;2023-11-21T02:59:05;7.90;99.90
29201;DHT22;16244;51.956;12.980;2023-11-21T03:01:32;7.90;99.90
29201;DHT22;16244;51.956;12.980;2023-11-21T03:03:59;7.90;99.90
29201;DHT22;16244;51.956;12.980;2023-11-21T03:06:27;7.90;99.90
29201;DHT22;16244;51.956;12.980;2023-11-21T03:08:55;7.90;99.90
29201;DHT22;16244;51.956;12.980;2023-11-21T03:11:22;7.90;99.90
29201;DHT22;16244;51.956;12.980;2023-11-21T03:13:50;7.90;99.90
29201;DHT22;16244;51.956;12.980;2023-11-21T03:16:18;7.90;99.90
29201;DHT22;16244;51.956;12.980;2023-11-21T03:18:46;7.90;99.90
29201;DHT22;16244;51.956;12.980;2023-11-21T03:21:14;8.00;99.90
29201;DHT22;16244;51.956;12.980;2023-11-21T03:23:41;8.00;99.90
29201;DHT22;16244;51.956;12.980;2023-11-21T03:26:12;8.00;99.90
29201;DHT22;16244;51.956;12.980;2023-11-21T03:28:40;7.90;99.90
29201;DHT22;16244;51.956;12.980;2023-11-21T03:31:07;7.90;99.90
29201;DHT22;16244;51.956;12.980;2023-11-21T03:33:37;8.00;99.90
29201;DHT22;16244;51.956;12.980;2023-11-21T03:36:05;8.00;99.90
29201;DHT22;16244;51.956;12.980;2023-11-21T03:38:34;8.00;99.90
29201;DHT22;16244;51.956;12.980;2023-11-21T03:41:01;8.00;99.90
29201;DHT22;16244;51.956;12.980;2023-11-21T03:43:29;8.00;99.90
29201;DHT22;16244;51.956;12.980;2023-11-21T03:45:56;8.00;99.90
29201;DHT22;16244;51.956;12.980;2023-11-21T03:48:24;8.00;99.90
29201;DHT22;16244;51.956;12.980;2023-11-21T03:50:52;8.00;99.90
29201;DHT22;16244;51.956;12.980;2023-11-21T03:53:19;8.00;99.90
29201;DHT22;16244;51.956;12.980;2023-11-21T03:55:46;7.90;99.90
29201;DHT22;16244;51.956;12.980;2023-11-21T03:58:14;7.80;99.90
29201;DHT22;16244;51.956;12.980;2023-11-21T04:00:41;7.90;99.90
29201;DHT22;16244;51.956;12.980;2023-11-21T04:03:09;7.90;99.90
29201;DHT22;16244;51.956;12.980;2023-11-21T04:05:36;7.90;99.90
29201;DHT22;16244;51.956;12.980;2023-11-21T04:08:05;7.90;99.90
29201;DHT22;16244;51.956;12.980;2023-11-21T04:10:32;7.90;99.90
29201;DHT22;16244;51.956;12.980;2023-11-21T04:13:00;7.90;99.90
29201;DHT22;16244;51.956;12.980;2023-11-21T04:15:27;7.90;99.90
29201;DHT22;16244;51.956;12.980;2023-11-21T04:17:55;7.90;99.90
29201;DHT22;16244;51.956;12.980;2023-11-21T04:20:23;7.90;99.90
29201;DHT22;16244;51.956;12.980;2023-11-21T04:22:50;7.80;99.90
29201;DHT22;16244;51.956;12.980;2023-11-21T04:25:19;7.70;99.90
29201;DHT22;16244;51.956;12.980;2023-11-21T04:27:47;7.40;99.90
29201;DHT22;16244;51.956;12.980;2023-11-21T04:30:15;7.30;99.90
29201;DHT22;16244;51.956;12.980;2023-11-21T04:32:42;7.20;99.90
29201;DHT22;16244;51.956;12.980;2023-11-21T04:35:10;7.10;99.90
29201;DHT22;16244;51.956;12.980;2023-11-21T04:37:37;7.00;99.90
29201;DHT22;16244;51.956;12.980;2023-11-21T04:40:05;7.00;99.90
29201;DHT22;16244;51.956;12.980;2023-11-21T04:42:35;6.90;99.90
29201;DHT22;16244;51.956;12.980;2023-11-21T04:45:04;6.90;99.90
29201;DHT22;16244;51.956;12.980;2023-11-21T04:47:35;6.90;99.90
29201;DHT22;16244;51.956;12.980;2023-11-21T04:50:03;6.80;99.90
29201;DHT22;16244;51.956;12.980;2023-11-21T04:52:32;6.80;99.90
29201;DHT22;16244;51.956;12.980;2023-11-21T04:55:00;6.70;99.90
29201;DHT22;16244;51.956;12.980;2023-11-21T04:57:28;6.70;99.90
29201;DHT22;16244;51.956;12.980;2023-11-21T04:59:57;6.70;99.90
29201;DHT22;16244;51.956;12.980;2023-11-21T05:02:25;6.60;99.90
29201;DHT22;16244;51.956;12.980;2023-11-21T05:04:52;6.60;99.90
29201;DHT22;16244;51.956;12.980;2023-11-21T05:07:21;6.50;99.90
29201;DHT22;16244;51.956;12.980;2023-11-21T05:09:48;6.50;99.90
29201;DHT22;16244;51.956;12.980;2023-11-21T05:12:16;6.50;99.90
29201;DHT22;16244;51.956;12.980;2023-11-21T05:14:43;6.50;99.90
29201;DHT22;16244;51.956;12.980;2023-11-21T05:17:12;6.40;99.90
29201;DHT22;16244;51.956;12.980;2023-11-21T05:19:40;6.30;99.90
29201;DHT22;16244;51.956;12.980;2023-11-21T05:22:08;6.20;99.90
29201;DHT22;16244;51.956;12.980;2023-11-21T05:24:37;6.20;99.90
29201;DHT22;16244;51.956;12.980;2023-11-21T05:27:05;6.10;99.90
29201;DHT22;16244;51.956;12.980;2023-11-21T05:29:32;6.10;99.90
29201;DHT22;16244;51.956;12.980;2023-11-21T05:32:00;6.10;99.90
29201;DHT22;16244;51.956;12.980;2023-11-21T05:34:29;6.00;99.90
29201;DHT22;16244;51.956;12.980;2023-11-21T05:36:56;6.00;99.90
29201;DHT22;16244;51.956;12.980;2023-11-21T05:39:24;5.90;99.90
29201;DHT22;16244;51.956;12.980;2023-11-21T05:41:52;5.90;99.90
29201;DHT22;16244;51.956;12.980;2023-11-21T05:44:19;5.90;99.90
29201;DHT22;16244;51.956;12.980;2023-11-21T05:46:47;6.00;99.90
29201;DHT22;16244;51.956;12.980;2023-11-21T05:49:14;5.90;99.90
29201;DHT22;16244;51.956;12.980;2023-11-21T05:51:43;5.80;99.90
29201;DHT22;16244;51.956;12.980;2023-11-21T05:54:11;5.80;99.90
29201;DHT22;16244;51.956;12.980;2023-11-21T05:56:39;5.80;99.90
29201;DHT22;16244;51.956;12.980;2023-11-21T05:59:06;5.90;99.90
29201;DHT22;16244;51.956;12.980;2023-11-21T06:01:33;5.80;99.90
29201;DHT22;16244;51.956;12.980;2023-11-21T06:04:04;5.70;99.90
29201;DHT22;16244;51.956;12.980;2023-11-21T06:06:34;5.70;99.90
29201;DHT22;16244;51.956;12.980;2023-11-21T06:09:03;5.70;99.90
29201;DHT22;16244;51.956;12.980;2023-11-21T06:11:32;5.70;99.90
29201;DHT22;16244;51.956;12.980;2023-11-21T06:13:59;5.70;99.90
29201;DHT22;16244;51.956;12.980;2023-11-21T06:16:26;5.70;99.90
29201;DHT22;16244;51.956;12.980;2023-11-21T06:18:54;5.70;99.90
29201;DHT22;16244;51.956;12.980;2023-11-21T06:21:21;5.60;99.90
29201;DHT22;16244;51.956;12.980;2023-11-21T06:23:49;5.60;99.90
29201;DHT22;16244;51.956;12.980;2023-11-21T06:26:20;5.50;99.90
29201;DHT22;16244;51.956;12.980;2023-11-21T06:28:47;5.60;99.90
29201;DHT22;16244;51.956;12.980;2023-11-21T06:31:17;5.70;99.90
29201;DHT22;16244;51.956;12.980;2023-11-21T06:33:44;5.60;99.90
29201;DHT22;16244;51.956;12.980;2023-11-21T06:36:12;5.60;99.90
29201;DHT22;16244;51.956;12.980;2023-11-21T06:38:40;5.60;99.90
29201;DHT22;16244;51.956;12.980;2023-11-21T06:41:07;5.60;99.90
29201;DHT22;16244;51.956;12.980;2023-11-21T06:43:36;5.60;99.90
29201;DHT22;16244;51.956;12.980;2023-11-21T06:46:04;5.60;99.90
29201;DHT22;16244;51.956;12.980;2023-11-21T06:48:32;5.50;99.90
29201;DHT22;16244;51.956;12.980;2023-11-21T06:50:59;5.40;99.90
29201;DHT22;16244;51.956;12.980;2023-11-21T06:53:26;5.50;99.90
29201;DHT22;16244;51.956;12.980;2023-11-21T06:55:54;5.50;99.90
29201;DHT22;16244;51.956;12.980;2023-11-21T06:58:21;5.40;99.90
29201;DHT22;16244;51.956;12.980;2023-11-21T07:00:50;5.30;99.90
29201;DHT22;16244;51.956;12.980;2023-11-21T07:03:18;5.30;99.90
29201;DHT22;16244;51.956;12.980;2023-11-21T07:05:46;5.30;99.90
29201;DHT22;16244;51.956;12.980;2023-11-21T07:08:13;5.20;99.90
29201;DHT22;16244;51.956;12.980;2023-11-21T07:10:41;5.20;99.90
29201;DHT22;16244;51.956;12.980;2023-11-21T07:13:08;5.20;99.90
29201;DHT22;16244;51.956;12.980;2023-11-21T07:15:38;5.20;99.90
29201;DHT22;16244;51.956;12.980;2023-11-21T07:18:07;5.20;99.90
29201;DHT22;16244;51.956;12.980;2023-11-21T07:20:34;5.20;99.90
29201;DHT22;16244;51.956;12.980;2023-11-21T07:23:02;5.20;99.90
29201;DHT22;16244;51.956;12.980;2023-11-21T07:25:31;5.20;99.90
29201;DHT22;16244;51.956;12.980;2023-11-21T07:27:59;5.20;99.90
29201;DHT22;16244;51.956;12.980;2023-11-21T07:30:27;5.20;99.90
29201;DHT22;16244;51.956;12.980;2023-11-21T07:32:54;5.20;99.90
29201;DHT22;16244;51.956;12.980;2023-11-21T07:35:23;5.20;99.90
29201;DHT22;16244;51.956;12.980;2023-11-21T07:37:51;5.20;99.90
29201;DHT22;16244;51.956;12.980;2023-11-21T07:40:18;5.20;99.90
29201;DHT22;16244;51.956;12.980;2023-11-21T07:42:46;5.20;99.90
29201;DHT22;16244;51.956;12.980;2023-11-21T07:45:13;5.20;99.90
29201;DHT22;16244;51.956;12.980;2023-11-21T07:47:41;5.20;99.90
29201;DHT22;16244;51.956;12.980;2023-11-21T07:50:09;5.20;99.90
29201;DHT22;16244;51.956;12.980;2023-11-21T07:52:38;5.20;99.90
29201;DHT22;16244;51.956;12.980;2023-11-21T07:55:06;5.20;99.90
29201;DHT22;16244;51.956;12.980;2023-11-21T07:57:34;5.10;99.90
29201;DHT22;16244;51.956;12.980;2023-11-21T08:00:02;5.10;99.90
29201;DHT22;16244;51.956;12.980;2023-11-21T08:02:32;5.20;99.90
29201;DHT22;16244;51.956;12.980;2023-11-21T08:05:00;5.10;99.90
29201;DHT22;16244;51.956;12.980;2023-11-21T08:07:28;5.20;99.90
29201;DHT22;16244;51.956;12.980;2023-11-21T08:09:57;5.20;99.90
29201;DHT22;16244;51.956;12.980;2023-11-21T08:12:24;5.20;99.90
29201;DHT22;16244;51.956;12.980;2023-11-21T08:14:53;5.10;99.90
29201;DHT22;16244;51.956;12.980;2023-11-21T08:17:21;5.10;99.90
29201;DHT22;16244;51.956;12.980;2023-11-21T08:19:49;5.00;99.90
29201;DHT22;16244;51.956;12.980;2023-11-21T08:22:17;5.10;99.90
29201;DHT22;16244;51.956;12.980;2023-11-21T08:24:45;5.00;99.90
29201;DHT22;16244;51.956;12.980;2023-11-21T08:27:14;5.00;99.90
29201;DHT22;16244;51.956;12.980;2023-11-21T08:29:42;5.00;99.90
29201;DHT22;16244;51.956;12.980;2023-11-21T08:32:10;5.00;99.90
29201;DHT22;16244;51.956;12.980;2023-11-21T08:34:37;4.90;99.90
29201;DHT22;16244;51.956;12.980;2023-11-21T08:37:06;4.80;99.90
29201;DHT22;16244;51.956;12.980;2023-11-21T08:39:33;4.70;99.90
29201;DHT22;16244;51.956;12.980;2023-11-21T08:42:01;4.70;99.90
29201;DHT22;16244;51.956;12.980;2023-11-21T08:44:30;4.70;99.90
29201;DHT22;16244;51.956;12.980;2023-11-21T08:46:57;4.70;99.90
29201;DHT22;16244;51.956;12.980;2023-11-21T08:49:25;4.80;99.90
29201;DHT22;16244;51.956;12.980;2023-11-21T08:51:54;4.80;99.90
29201;DHT22;16244;51.956;12.980;2023-11-21T08:54:21;4.90;99.90
29201;DHT22;16244;51.956;12.980;2023-11-21T08:56:49;4.80;99.90
29201;DHT22;16244;51.956;12.980;2023-11-21T08:59:16;4.80;99.90
29201;DHT22;16244;51.956;12.980;2023-11-21T09:01:45;4.80;99.90
29201;DHT22;16244;51.956;12.980;2023-11-21T09:04:13;4.70;99.90
29201;DHT22;16244;51.956;12.980;2023-11-21T09:06:40;4.80;99.90
29201;DHT22;16244;51.956;12.980;2023-11-21T09:09:08;4.80;99.90
29201;DHT22;16244;51.956;12.980;2023-11-21T09:11:36;4.80;99.90
29201;DHT22;16244;51.956;12.980;2023-11-21T09:14:04;4.80;99.90
29201;DHT22;16244;51.956;12.980;2023-11-21T09:16:31;4.80;99.90
29201;DHT22;16244;51.956;12.980;2023-11-21T09:19:00;4.80;99.90
29201;DHT22;16244;51.956;12.980;2023-11-21T09:21:31;4.70;99.90
29201;DHT22;16244;51.956;12.980;2023-11-21T09:23:59;4.80;99.90
29201;DHT22;16244;51.956;12.980;2023-11-21T09:26:26;4.80;99.90
29201;DHT22;16244;51.956;12.980;2023-11-21T09:28:54;4.80;99.90
29201;DHT22;16244;51.956;12.980;2023-11-21T09:31:23;4.80;99.90
29201;DHT22;16244;51.956;12.980;2023-11-21T09:33:51;4.80;99.90
29201;DHT22;16244;51.956;12.980;2023-11-21T09:36:20;4.80;99.90
29201;DHT22;16244;51.956;12.980;2023-11-21T09:38:48;4.80;99.90
29201;DHT22;16244;51.956;12.980;2023-11-21T09:41:23;4.90;99.90
29201;DHT22;16244;51.956;12.980;2023-11-21T09:43:56;4.80;99.90
29201;DHT22;16244;51.956;12.980;2023-11-21T09:46:28;4.90;99.90
29201;DHT22;16244;51.956;12.980;2023-11-21T09:48:59;5.00;99.90
29201;DHT22;16244;51.956;12.980;2023-11-21T09:51:30;5.00;99.90
29201;DHT22;16244;51.956;12.980;2023-11-21T09:53:59;5.00;99.90
29201;DHT22;16244;51.956;12.980;2023-11-21T09:56:28;5.00;99.90
29201;DHT22;16244;51.956;12.980;2023-11-21T09:58:57;5.10;99.90
29201;DHT22;16244;51.956;12.980;2023-11-21T10:01:31;5.10;99.90
29201;DHT22;16244;51.956;12.980;2023-11-21T10:04:00;5.10;99.90
29201;DHT22;16244;51.956;12.980;2023-11-21T10:06:30;5.10;99.90
29201;DHT22;16244;51.956;12.980;2023-11-21T10:08:59;5.20;99.90
29201;DHT22;16244;51.956;12.980;2023-11-21T10:11:27;5.20;99.90
29201;DHT22;16244;51.956;12.980;2023-11-21T10:13:59;5.10;99.90
29201;DHT22;16244;51.956;12.980;2023-11-21T10:16:28;5.10;99.90
29201;DHT22;16244;51.956;12.980;2023-11-21T10:18:57;5.10;99.90
29201;DHT22;16244;51.956;12.980;2023-11-21T10:21:25;5.20;99.90
29201;DHT22;16244;51.956;12.980;2023-11-21T10:23:55;5.10;99.90
29201;DHT22;16244;51.956;12.980;2023-11-21T10:26:23;5.20;99.90
29201;DHT22;16244;51.956;12.980;2023-11-21T10:28:56;5.20;99.90
29201;DHT22;16244;51.956;12.980;2023-11-21T10:31:27;5.20;99.90
29201;DHT22;16244;51.956;12.980;2023-11-21T10:33:54;5.20;99.90
29201;DHT22;16244;51.956;12.980;2023-11-21T10:36:25;5.20;99.90
29201;DHT22;16244;51.956;12.980;2023-11-21T10:38:54;5.10;99.90
29201;DHT22;16244;51.956;12.980;2023-11-21T10:41:22;5.10;99.90
29201;DHT22;16244;51.956;12.980;2023-11-21T10:43:53;5.10;99.90
29201;DHT22;16244;51.956;12.980;2023-11-21T10:46:22;5.20;99.90
29201;DHT22;16244;51.956;12.980;2023-11-21T10:48:52;5.20;99.90
29201;DHT22;16244;51.956;12.980;2023-11-21T10:51:22;5.20;99.90
29201;DHT22;16244;51.956;12.980;2023-11-21T10:53:51;5.20;99.90
29201;DHT22;16244;51.956;12.980;2023-11-21T10:56:19;5.30;99.90
29201;DHT22;16244;51.956;12.980;2023-11-21T10:58:52;5.20;99.90
29201;DHT22;16244;51.956;12.980;2023-11-21T11:01:21;5.30;99.90
29201;DHT22;16244;51.956;12.980;2023-11-21T11:03:52;5.20;99.90
29201;DHT22;16244;51.956;12.980;2023-11-21T11:06:21;5.20;99.90
29201;DHT22;16244;51.956;12.980;2023-11-21T11:08:53;5.00;99.90
29201;DHT22;16244;51.956;12.980;2023-11-21T11:11:21;5.00;99.90
29201;DHT22;16244;51.956;12.980;2023-11-21T11:13:48;5.00;99.90
29201;DHT22;16244;51.956;12.980;2023-11-21T11:16:17;4.90;99.90
29201;DHT22;16244;51.956;12.980;2023-11-21T11:18:46;4.90;99.90
29201;DHT22;16244;51.956;12.980;2023-11-21T11:21:23;4.90;99.90
29201;DHT22;16244;51.956;12.980;2023-11-21T11:24:13;5.00;99.90
29201;DHT22;16244;51.956;12.980;2023-11-21T11:26:50;4.90;99.90
29201;DHT22;16244;51.956;12.980;2023-11-21T11:29:26;4.80;99.90
29201;DHT22;16244;51.956;12.980;2023-11-21T11:32:08;4.80;99.90
29201;DHT22;16244;51.956;12.980;2023-11-21T11:34:41;4.80;99.90
29201;DHT22;16244;51.956;12.980;2023-11-21T11:37:12;4.70;99.90
29201;DHT22;16244;51.956;12.980;2023-11-21T11:39:41;4.60;99.90
29201;DHT22;16244;51.956;12.980;2023-11-21T11:42:12;4.70;99.90
29201;DHT22;16244;51.956;12.980;2023-11-21T11:44:51;4.70;99.90
29201;DHT22;16244;51.956;12.980;2023-11-21T11:47:24;4.70;99.90
29201;DHT22;16244;51.956;12.980;2023-11-21T11:49:58;4.70;99.90
29201;DHT22;16244;51.956;12.980;2023-11-21T11:52:33;4.70;99.90
29201;DHT22;16244;51.956;12.980;2023-11-21T11:55:00;4.60;99.90
29201;DHT22;16244;51.956;12.980;2023-11-21T11:57:30;4.60;99.90
29201;DHT22;16244;51.956;12.980;2023-11-21T12:00:08;4.50;99.90
29201;DHT22;16244;51.956;12.980;2023-11-21T12:02:38;4.50;99.90
29201;DHT22;16244;51.956;12.980;2023-11-21T12:05:10;4.50;99.90
29201;DHT22;16244;51.956;12.980;2023-11-21T12:07:48;4.50;99.90
29201;DHT22;16244;51.956;12.980;2023-11-21T12:10:17;4.50;99.90
29201;DHT22;16244;51.956;12.980;2023-11-21T12:12:46;4.50;99.90
29201;DHT22;16244;51.956;12.980;2023-11-21T12:15:14;4.50;99.90
29201;DHT22;16244;51.956;12.980;2023-11-21T12:17:44;4.60;99.90
29201;DHT22;16244;51.956;12.980;2023-11-21T12:20:12;4.60;99.90
29201;DHT22;16244;51.956;12.980;2023-11-21T12:22:44;4.60;99.90
29201;DHT22;16244;51.956;12.980;2023-11-21T12:25:15;4.70;99.90
29201;DHT22;16244;51.956;12.980;2023-11-21T12:27:46;4.70;99.90
29201;DHT22;16244;51.956;12.980;2023-11-21T12:30:17;4.60;99.90
29201;DHT22;16244;51.956;12.980;2023-11-21T12:32:48;4.60;99.90
29201;DHT22;16244;51.956;12.980;2023-11-21T12:35:18;4.60;99.90
29201;DHT22;16244;51.956;12.980;2023-11-21T12:37:46;4.60;99.90
29201;DHT22;16244;51.956;12.980;2023-11-21T12:40:15;4.60;99.90
29201;DHT22;16244;51.956;12.980;2023-11-21T12:42:44;4.60;99.90
29201;DHT22;16244;51.956;12.980;2023-11-21T12:45:20;4.60;99.90
29201;DHT22;16244;51.956;12.980;2023-11-21T12:47:50;4.60;99.90
29201;DHT22;16244;51.956;12.980;2023-11-21T12:50:22;4.60;99.90
29201;DHT22;16244;51.956;12.980;2023-11-21T12:52:51;4.60;99.90
29201;DHT22;16244;51.956;12.980;2023-11-21T12:55:20;4.60;99.90
29201;DHT22;16244;51.956;12.980;2023-11-21T12:57:49;4.60;99.90
29201;DHT22;16244;51.956;12.980;2023-11-21T13:00:27;4.50;99.90
29201;DHT22;16244;51.956;12.980;2023-11-21T13:02:58;4.60;99.90
29201;DHT22;16244;51.956;12.980;2023-11-21T13:05:27;4.60;99.90
29201;DHT22;16244;51.956;12.980;2023-11-21T13:07:56;4.60;99.90
29201;DHT22;16244;51.956;12.980;2023-11-21T13:10:25;4.50;99.90
29201;DHT22;16244;51.956;12.980;2023-11-21T13:12:55;4.50;99.90
29201;DHT22;16244;51.956;12.980;2023-11-21T13:15:24;4.50;99.90
29201;DHT22;16244;51.956;12.980;2023-11-21T13:17:52;4.50;99.90
29201;DHT22;16244;51.956;12.980;2023-11-21T13:20:23;4.50;99.90
29201;DHT22;16244;51.956;12.980;2023-11-21T13:22:52;4.50;99.90
29201;DHT22;16244;51.956;12.980;2023-11-21T13:25:23;4.50;99.90
29201;DHT22;16244;51.956;12.980;2023-11-21T13:27:54;4.50;99.90
29201;DHT22;16244;51.956;12.980;2023-11-21T13:30:22;4.50;99.90
29201;DHT22;16244;51.956;12.980;2023-11-21T13:32:53;4.50;99.90
29201;DHT22;16244;51.956;12.980;2023-11-21T13:35:24;4.50;99.90
29201;DHT22;16244;51.956;12.980;2023-11-21T13:38:04;4.60;99.90
29201;DHT22;16244;51.956;12.980;2023-11-21T13:40:33;4.60;99.90
29201;DHT22;16244;51.956;12.980;2023-11-21T13:43:09;4.60;99.90
29201;DHT22;16244;51.956;12.980;2023-11-21T13:45:37;4.60;99.90
29201;DHT22;16244;51.956;12.980;2023-11-21T13:48:06;4.60;99.90
29201;DHT22;16244;51.956;12.980;2023-11-21T13:50:37;4.40;99.90
29201;DHT22;16244;51.956;12.980;2023-11-21T13:53:05;4.30;99.90
29201;DHT22;16244;51.956;12.980;2023-11-21T13:55:42;4.20;99.90
29201;DHT22;16244;51.956;12.980;2023-11-21T13:58:11;4.10;99.90
29201;DHT22;16244;51.956;12.980;2023-11-21T14:00:44;4.00;99.90
29201;DHT22;16244;51.956;12.980;2023-11-21T14:03:12;4.00;99.90
29201;DHT22;16244;51.956;12.980;2023-11-21T14:05:49;4.10;99.90
29201;DHT22;16244;51.956;12.980;2023-11-21T14:08:19;4.00;99.90
29201;DHT22;16244;51.956;12.980;2023-11-21T14:10:47;4.00;99.90
29201;DHT22;16244;51.956;12.980;2023-11-21T14:13:21;3.90;99.90
29201;DHT22;16244;51.956;12.980;2023-11-21T14:15:50;3.90;99.90
29201;DHT22;16244;51.956;12.980;2023-11-21T14:18:24;3.90;99.90
29201;DHT22;16244;51.956;12.980;2023-11-21T14:20:58;4.00;99.90
29201;DHT22;16244;51.956;12.980;2023-11-21T14:23:25;4.00;99.90
29201;DHT22;16244;51.956;12.980;2023-11-21T14:25:53;4.00;99.90
29201;DHT22;16244;51.956;12.980;2023-11-21T14:28:20;4.00;99.90
29201;DHT22;16244;51.956;12.980;2023-11-21T14:30:49;3.90;99.90
29201;DHT22;16244;51.956;12.980;2023-11-21T14:33:17;3.90;99.90
29201;DHT22;16244;51.956;12.980;2023-11-21T14:35:44;3.90;99.90
29201;DHT22;16244;51.956;12.980;2023-11-21T14:38:14;4.00;99.90
29201;DHT22;16244;51.956;12.980;2023-11-21T14:40:42;3.90;99.90
29201;DHT22;16244;51.956;12.980;2023-11-21T14:43:10;3.90;99.90
29201;DHT22;16244;51.956;12.980;2023-11-21T14:45:37;3.90;99.90
29201;DHT22;16244;51.956;12.980;2023-11-21T14:48:06;3.80;99.90
29201;DHT22;16244;51.956;12.980;2023-11-21T14:50:42;3.80;99.90
29201;DHT22;16244;51.956;12.980;2023-11-21T14:53:38;3.80;99.90
29201;DHT22;16244;51.956;12.980;2023-11-21T14:56:10;3.80;99.90
29201;DHT22;16244;51.956;12.980;2023-11-21T14:58:44;3.80;99.90
29201;DHT22;16244;51.956;12.980;2023-11-21T15:01:10;3.80;99.90
29201;DHT22;16244;51.956;12.980;2023-11-21T15:03:38;3.80;99.90
29201;DHT22;16244;51.956;12.980;2023-11-21T15:06:13;3.80;99.90
29201;DHT22;16244;51.956;12.980;2023-11-21T15:08:55;3.80;99.90
29201;DHT22;16244;51.956;12.980;2023-11-21T15:11:43;3.80;99.90
29201;DHT22;16244;51.956;12.980;2023-11-21T15:14:11;3.80;99.90
29201;DHT22;16244;51.956;12.980;2023-11-21T15:16:42;3.90;99.90
29201;DHT22;16244;51.956;12.980;2023-11-21T15:19:11;3.90;99.90
29201;DHT22;16244;51.956;12.980;2023-11-21T15:21:44;4.00;99.90
29201;DHT22;16244;51.956;12.980;2023-11-21T15:24:13;3.90;99.90
29201;DHT22;16244;51.956;12.980;2023-11-21T15:26:41;3.90;99.90
29201;DHT22;16244;51.956;12.980;2023-11-21T15:29:08;3.90;99.90
29201;DHT22;16244;51.956;12.980;2023-11-21T15:31:37;3.80;99.90
29201;DHT22;16244;51.956;12.980;2023-11-21T15:34:05;3.80;99.90
29201;DHT22;16244;51.956;12.980;2023-11-21T15:36:34;3.70;99.90
29201;DHT22;16244;51.956;12.980;2023-11-21T15:39:01;3.80;99.90
29201;DHT22;16244;51.956;12.980;2023-11-21T15:41:30;3.70;99.90